sensor_id;sensor_type;location;lat;lon;timestamp;P1;durP1;ratioP1;P2;durP2;ratioP2
72301;SDS011;60235;52.234;5.186;2022-10-23T00:01:38;20.63;;;8.68;;
72301;SDS011;60235;52.234;5.186;2022-10-23T00:04:11;21.73;;;8.57;;
72301;SDS011;60235;52.234;5.186;2022-10-23T00:06:38;20.98;;;9.50;;
72301;SDS011;60235;52.234;5.186;2022-10-23T00:09:05;18.05;;;8.48;;
72301;SDS011;60235;52.234;5.186;2022-10-23T00:11:32;19.30;;;9.27;;
72301;SDS011;60235;52.234;5.186;2022-10-23T00:13:59;18.90;;;8.23;;
72301;SDS011;60235;52.234;5.186;2022-10-23T00:16:26;19.15;;;8.05;;
72301;SDS011;60235;52.234;5.186;2022-10-23T00:18:52;22.52;;;9.10;;
72301;SDS011;60235;52.234;5.186;2022-10-23T00:21:19;18.70;;;9.27;;
72301;SDS011;60235;52.234;5.186;2022-10-23T00:23:45;21.67;;;9.75;;
72301;SDS011;60235;52.234;5.186;2022-10-23T00:26:12;23.13;;;8.88;;
72301;SDS011;60235;52.234;5.186;2022-10-23T00:28:44;19.55;;;8.15;;
72301;SDS011;60235;52.234;5.186;2022-10-23T00:31:11;22.00;;;9.02;;
72301;SDS011;60235;52.234;5.186;2022-10-23T00:33:37;18.88;;;8.80;;
72301;SDS011;60235;52.234;5.186;2022-10-23T00:36:05;20.33;;;8.05;;
72301;SDS011;60235;52.234;5.186;2022-10-23T00:38:31;19.30;;;9.43;;
72301;SDS011;60235;52.234;5.186;2022-10-23T00:40:57;21.48;;;10.35;;
72301;SDS011;60235;52.234;5.186;2022-10-23T00:43:24;20.90;;;8.82;;
72301;SDS011;60235;52.234;5.186;2022-10-23T00:45:50;19.80;;;8.32;;
72301;SDS011;60235;52.234;5.186;2022-10-23T00:48:16;23.02;;;8.65;;
72301;SDS011;60235;52.234;5.186;2022-10-23T00:50:42;24.25;;;8.88;;
72301;SDS011;60235;52.234;5.186;2022-10-23T00:53:09;19.92;;;9.48;;
72301;SDS011;60235;52.234;5.186;2022-10-23T00:55:36;18.50;;;8.85;;
72301;SDS011;60235;52.234;5.186;2022-10-23T00:58:03;22.48;;;8.98;;
72301;SDS011;60235;52.234;5.186;2022-10-23T01:00:38;19.85;;;8.50;;
72301;SDS011;60235;52.234;5.186;2022-10-23T01:03:05;23.38;;;9.55;;
72301;SDS011;60235;52.234;5.186;2022-10-23T01:05:32;24.73;;;8.50;;
72301;SDS011;60235;52.234;5.186;2022-10-23T01:08:01;22.20;;;8.77;;
72301;SDS011;60235;52.234;5.186;2022-10-23T01:10:34;18.23;;;8.23;;
72301;SDS011;60235;52.234;5.186;2022-10-23T01:18:15;20.10;;;8.80;;
72301;SDS011;60235;52.234;5.186;2022-10-23T01:20:44;21.20;;;9.38;;
72301;SDS011;60235;52.234;5.186;2022-10-23T01:28:25;17.63;;;8.90;;
72301;SDS011;60235;52.234;5.186;2022-10-23T01:30:53;20.73;;;8.98;;
72301;SDS011;60235;52.234;5.186;2022-10-23T01:33:22;25.38;;;10.18;;
72301;SDS011;60235;52.234;5.186;2022-10-23T01:36:00;22.65;;;9.30;;
72301;SDS011;60235;52.234;5.186;2022-10-23T01:38:32;20.02;;;9.48;;
72301;SDS011;60235;52.234;5.186;2022-10-23T01:41:09;23.10;;;9.48;;
72301;SDS011;60235;52.234;5.186;2022-10-23T01:43:38;21.38;;;9.35;;
72301;SDS011;60235;52.234;5.186;2022-10-23T01:46:07;22.42;;;9.85;;
72301;SDS011;60235;52.234;5.186;2022-10-23T01:48:35;21.73;;;10.18;;
72301;SDS011;60235;52.234;5.186;2022-10-23T01:51:05;20.10;;;10.35;;
72301;SDS011;60235;52.234;5.186;2022-10-23T01:53:33;19.40;;;9.60;;
72301;SDS011;60235;52.234;5.186;2022-10-23T01:56:00;22.77;;;9.32;;
72301;SDS011;60235;52.234;5.186;2022-10-23T01:58:27;22.73;;;9.35;;
72301;SDS011;60235;52.234;5.186;2022-10-23T02:00:54;22.88;;;9.75;;
72301;SDS011;60235;52.234;5.186;2022-10-23T02:03:22;19.65;;;9.98;;
72301;SDS011;60235;52.234;5.186;2022-10-23T02:05:49;23.02;;;9.73;;
72301;SDS011;60235;52.234;5.186;2022-10-23T02:08:15;25.67;;;9.45;;
72301;SDS011;60235;52.234;5.186;2022-10-23T02:13:30;19.50;;;9.40;;
72301;SDS011;60235;52.234;5.186;2022-10-23T02:18:38;18.13;;;9.27;;
72301;SDS011;60235;52.234;5.186;2022-10-23T02:21:12;22.73;;;9.48;;
72301;SDS011;60235;52.234;5.186;2022-10-23T02:23:39;18.77;;;9.18;;
72301;SDS011;60235;52.234;5.186;2022-10-23T02:28:38;19.10;;;9.02;;
72301;SDS011;60235;52.234;5.186;2022-10-23T02:31:05;19.50;;;9.25;;
72301;SDS011;60235;52.234;5.186;2022-10-23T02:33:32;18.10;;;8.57;;
72301;SDS011;60235;52.234;5.186;2022-10-23T02:35:59;19.90;;;8.95;;
72301;SDS011;60235;52.234;5.186;2022-10-23T02:41:00;21.48;;;9.30;;
72301;SDS011;60235;52.234;5.186;2022-10-23T02:43:29;19.65;;;8.45;;
72301;SDS011;60235;52.234;5.186;2022-10-23T02:46:00;18.98;;;9.30;;
72301;SDS011;60235;52.234;5.186;2022-10-23T02:48:32;21.88;;;8.88;;
72301;SDS011;60235;52.234;5.186;2022-10-23T02:51:02;23.23;;;9.75;;
72301;SDS011;60235;52.234;5.186;2022-10-23T02:53:40;17.85;;;9.65;;
72301;SDS011;60235;52.234;5.186;2022-10-23T02:58:42;21.58;;;9.50;;
72301;SDS011;60235;52.234;5.186;2022-10-23T03:01:11;20.63;;;8.27;;
72301;SDS011;60235;52.234;5.186;2022-10-23T03:03:39;20.20;;;8.90;;
72301;SDS011;60235;52.234;5.186;2022-10-23T03:06:07;24.27;;;9.43;;
72301;SDS011;60235;52.234;5.186;2022-10-23T03:08:40;19.35;;;9.00;;
72301;SDS011;60235;52.234;5.186;2022-10-23T03:11:06;21.88;;;9.05;;
72301;SDS011;60235;52.234;5.186;2022-10-23T03:13:32;22.20;;;8.95;;
72301;SDS011;60235;52.234;5.186;2022-10-23T03:15:58;18.65;;;8.70;;
72301;SDS011;60235;52.234;5.186;2022-10-23T03:18:24;23.50;;;9.32;;
72301;SDS011;60235;52.234;5.186;2022-10-23T03:20:50;22.30;;;9.50;;
72301;SDS011;60235;52.234;5.186;2022-10-23T03:23:16;25.23;;;9.18;;
72301;SDS011;60235;52.234;5.186;2022-10-23T03:25:42;24.33;;;9.15;;
72301;SDS011;60235;52.234;5.186;2022-10-23T03:28:08;19.90;;;8.73;;
72301;SDS011;60235;52.234;5.186;2022-10-23T03:30:34;19.88;;;8.73;;
72301;SDS011;60235;52.234;5.186;2022-10-23T03:33:00;21.83;;;8.68;;
72301;SDS011;60235;52.234;5.186;2022-10-23T03:35:26;20.55;;;9.25;;
72301;SDS011;60235;52.234;5.186;2022-10-23T03:37:52;19.80;;;9.65;;
72301;SDS011;60235;52.234;5.186;2022-10-23T03:40:18;16.80;;;8.80;;
72301;SDS011;60235;52.234;5.186;2022-10-23T03:42:44;16.77;;;8.30;;
72301;SDS011;60235;52.234;5.186;2022-10-23T03:45:10;23.35;;;8.38;;
72301;SDS011;60235;52.234;5.186;2022-10-23T03:47:36;21.75;;;8.80;;
72301;SDS011;60235;52.234;5.186;2022-10-23T03:50:05;16.30;;;8.60;;
72301;SDS011;60235;52.234;5.186;2022-10-23T03:52:31;19.63;;;8.65;;
72301;SDS011;60235;52.234;5.186;2022-10-23T03:54:57;19.20;;;8.88;;
72301;SDS011;60235;52.234;5.186;2022-10-23T03:57:23;18.00;;;8.85;;
72301;SDS011;60235;52.234;5.186;2022-10-23T03:59:49;22.13;;;9.40;;
72301;SDS011;60235;52.234;5.186;2022-10-23T04:02:16;19.02;;;8.57;;
72301;SDS011;60235;52.234;5.186;2022-10-23T04:04:42;23.15;;;8.88;;
72301;SDS011;60235;52.234;5.186;2022-10-23T04:07:08;20.02;;;8.30;;
72301;SDS011;60235;52.234;5.186;2022-10-23T04:09:34;17.67;;;7.95;;
72301;SDS011;60235;52.234;5.186;2022-10-23T04:12:00;19.30;;;8.35;;
72301;SDS011;60235;52.234;5.186;2022-10-23T04:14:26;21.02;;;8.57;;
72301;SDS011;60235;52.234;5.186;2022-10-23T04:16:52;18.13;;;8.50;;
72301;SDS011;60235;52.234;5.186;2022-10-23T04:19:18;19.67;;;8.52;;
72301;SDS011;60235;52.234;5.186;2022-10-23T04:21:44;24.88;;;8.88;;
72301;SDS011;60235;52.234;5.186;2022-10-23T04:24:10;23.52;;;8.98;;
72301;SDS011;60235;52.234;5.186;2022-10-23T04:26:36;20.92;;;9.27;;
72301;SDS011;60235;52.234;5.186;2022-10-23T04:29:02;18.90;;;8.30;;
72301;SDS011;60235;52.234;5.186;2022-10-23T04:31:28;20.30;;;9.32;;
72301;SDS011;60235;52.234;5.186;2022-10-23T04:33:54;15.82;;;8.57;;
72301;SDS011;60235;52.234;5.186;2022-10-23T04:36:20;24.35;;;9.20;;
72301;SDS011;60235;52.234;5.186;2022-10-23T04:38:46;20.17;;;8.70;;
72301;SDS011;60235;52.234;5.186;2022-10-23T04:41:12;20.13;;;9.32;;
72301;SDS011;60235;52.234;5.186;2022-10-23T04:43:38;21.25;;;8.77;;
72301;SDS011;60235;52.234;5.186;2022-10-23T04:46:04;24.30;;;8.95;;
72301;SDS011;60235;52.234;5.186;2022-10-23T04:48:31;22.55;;;8.60;;
72301;SDS011;60235;52.234;5.186;2022-10-23T04:50:58;22.60;;;9.13;;
72301;SDS011;60235;52.234;5.186;2022-10-23T04:53:24;19.13;;;8.80;;
72301;SDS011;60235;52.234;5.186;2022-10-23T04:55:51;21.40;;;9.27;;
72301;SDS011;60235;52.234;5.186;2022-10-23T04:58:17;18.35;;;8.07;;
72301;SDS011;60235;52.234;5.186;2022-10-23T05:00:43;20.25;;;8.63;;
72301;SDS011;60235;52.234;5.186;2022-10-23T05:03:09;23.85;;;9.00;;
72301;SDS011;60235;52.234;5.186;2022-10-23T05:05:35;19.63;;;8.38;;
72301;SDS011;60235;52.234;5.186;2022-10-23T05:08:01;18.75;;;8.10;;
72301;SDS011;60235;52.234;5.186;2022-10-23T05:10:28;21.30;;;8.65;;
72301;SDS011;60235;52.234;5.186;2022-10-23T05:12:54;24.48;;;8.07;;
72301;SDS011;60235;52.234;5.186;2022-10-23T05:15:20;20.63;;;8.80;;
72301;SDS011;60235;52.234;5.186;2022-10-23T05:17:47;18.17;;;8.40;;
72301;SDS011;60235;52.234;5.186;2022-10-23T05:20:15;20.60;;;7.80;;
72301;SDS011;60235;52.234;5.186;2022-10-23T05:22:42;19.23;;;8.52;;
72301;SDS011;60235;52.234;5.186;2022-10-23T05:25:09;16.40;;;7.88;;
72301;SDS011;60235;52.234;5.186;2022-10-23T05:27:35;16.60;;;8.02;;
72301;SDS011;60235;52.234;5.186;2022-10-23T05:30:02;17.55;;;7.93;;
72301;SDS011;60235;52.234;5.186;2022-10-23T05:32:28;15.43;;;7.28;;
72301;SDS011;60235;52.234;5.186;2022-10-23T05:34:55;16.85;;;7.32;;
72301;SDS011;60235;52.234;5.186;2022-10-23T05:37:21;16.10;;;7.22;;
72301;SDS011;60235;52.234;5.186;2022-10-23T05:39:47;14.05;;;7.50;;
72301;SDS011;60235;52.234;5.186;2022-10-23T05:42:13;15.30;;;7.55;;
72301;SDS011;60235;52.234;5.186;2022-10-23T05:44:39;18.83;;;7.05;;
72301;SDS011;60235;52.234;5.186;2022-10-23T05:47:06;17.27;;;7.38;;
72301;SDS011;60235;52.234;5.186;2022-10-23T05:49:32;20.30;;;7.38;;
72301;SDS011;60235;52.234;5.186;2022-10-23T05:51:58;17.77;;;7.35;;
72301;SDS011;60235;52.234;5.186;2022-10-23T05:54:24;15.45;;;6.53;;
72301;SDS011;60235;52.234;5.186;2022-10-23T05:56:50;15.77;;;6.60;;
72301;SDS011;60235;52.234;5.186;2022-10-23T05:59:16;18.90;;;7.78;;
72301;SDS011;60235;52.234;5.186;2022-10-23T06:01:42;18.08;;;7.40;;
72301;SDS011;60235;52.234;5.186;2022-10-23T06:04:08;12.32;;;6.03;;
72301;SDS011;60235;52.234;5.186;2022-10-23T06:06:34;17.77;;;6.60;;
72301;SDS011;60235;52.234;5.186;2022-10-23T06:09:00;18.85;;;5.97;;
72301;SDS011;60235;52.234;5.186;2022-10-23T06:11:26;16.20;;;6.03;;
72301;SDS011;60235;52.234;5.186;2022-10-23T06:13:52;17.92;;;6.03;;
72301;SDS011;60235;52.234;5.186;2022-10-23T06:16:19;14.43;;;5.97;;
72301;SDS011;60235;52.234;5.186;2022-10-23T06:18:46;12.52;;;5.32;;
72301;SDS011;60235;52.234;5.186;2022-10-23T06:21:12;14.02;;;5.53;;
72301;SDS011;60235;52.234;5.186;2022-10-23T06:23:39;12.23;;;5.57;;
72301;SDS011;60235;52.234;5.186;2022-10-23T06:26:05;14.98;;;6.38;;
72301;SDS011;60235;52.234;5.186;2022-10-23T06:28:32;16.80;;;5.68;;
72301;SDS011;60235;52.234;5.186;2022-10-23T06:30:58;14.70;;;6.43;;
72301;SDS011;60235;52.234;5.186;2022-10-23T06:33:24;12.30;;;5.78;;
72301;SDS011;60235;52.234;5.186;2022-10-23T06:35:50;11.98;;;5.15;;
72301;SDS011;60235;52.234;5.186;2022-10-23T06:38:16;12.77;;;5.78;;
72301;SDS011;60235;52.234;5.186;2022-10-23T06:40:42;20.35;;;5.68;;
72301;SDS011;60235;52.234;5.186;2022-10-23T06:43:10;16.13;;;5.60;;
72301;SDS011;60235;52.234;5.186;2022-10-23T06:45:36;17.48;;;5.90;;
72301;SDS011;60235;52.234;5.186;2022-10-23T06:48:03;12.50;;;5.13;;
72301;SDS011;60235;52.234;5.186;2022-10-23T06:50:29;19.63;;;6.10;;
72301;SDS011;60235;52.234;5.186;2022-10-23T06:52:55;14.82;;;5.82;;
72301;SDS011;60235;52.234;5.186;2022-10-23T06:55:21;19.15;;;6.25;;
72301;SDS011;60235;52.234;5.186;2022-10-23T06:57:47;15.02;;;5.97;;
72301;SDS011;60235;52.234;5.186;2022-10-23T07:00:13;16.10;;;6.13;;
72301;SDS011;60235;52.234;5.186;2022-10-23T07:02:39;14.18;;;5.30;;
72301;SDS011;60235;52.234;5.186;2022-10-23T07:05:05;16.52;;;6.47;;
72301;SDS011;60235;52.234;5.186;2022-10-23T07:07:31;17.98;;;5.90;;
72301;SDS011;60235;52.234;5.186;2022-10-23T07:09:57;16.85;;;6.25;;
72301;SDS011;60235;52.234;5.186;2022-10-23T07:12:23;16.75;;;6.10;;
72301;SDS011;60235;52.234;5.186;2022-10-23T07:14:49;16.30;;;6.00;;
72301;SDS011;60235;52.234;5.186;2022-10-23T07:17:15;18.10;;;5.55;;
72301;SDS011;60235;52.234;5.186;2022-10-23T07:19:41;15.88;;;6.28;;
72301;SDS011;60235;52.234;5.186;2022-10-23T07:22:07;13.02;;;5.95;;
72301;SDS011;60235;52.234;5.186;2022-10-23T07:24:33;16.05;;;5.72;;
72301;SDS011;60235;52.234;5.186;2022-10-23T07:29:28;14.27;;;5.60;;
72301;SDS011;60235;52.234;5.186;2022-10-23T07:31:54;18.33;;;5.53;;
72301;SDS011;60235;52.234;5.186;2022-10-23T07:34:21;16.90;;;6.25;;
72301;SDS011;60235;52.234;5.186;2022-10-23T07:36:47;14.30;;;5.93;;
72301;SDS011;60235;52.234;5.186;2022-10-23T07:39:13;18.60;;;6.32;;
72301;SDS011;60235;52.234;5.186;2022-10-23T07:41:39;16.25;;;5.72;;
72301;SDS011;60235;52.234;5.186;2022-10-23T07:44:05;20.10;;;6.47;;
72301;SDS011;60235;52.234;5.186;2022-10-23T07:46:31;18.08;;;6.65;;
72301;SDS011;60235;52.234;5.186;2022-10-23T07:48:57;15.88;;;6.30;;
72301;SDS011;60235;52.234;5.186;2022-10-23T07:51:23;16.02;;;6.35;;
72301;SDS011;60235;52.234;5.186;2022-10-23T07:53:49;17.38;;;6.13;;
72301;SDS011;60235;52.234;5.186;2022-10-23T07:56:22;17.17;;;6.60;;
72301;SDS011;60235;52.234;5.186;2022-10-23T07:58:51;15.95;;;6.20;;
72301;SDS011;60235;52.234;5.186;2022-10-23T08:03:52;15.50;;;6.25;;
72301;SDS011;60235;52.234;5.186;2022-10-23T08:06:18;17.38;;;6.40;;
72301;SDS011;60235;52.234;5.186;2022-10-23T08:08:44;14.60;;;6.10;;
72301;SDS011;60235;52.234;5.186;2022-10-23T08:11:11;14.85;;;6.80;;
72301;SDS011;60235;52.234;5.186;2022-10-23T08:13:38;15.73;;;5.82;;
72301;SDS011;60235;52.234;5.186;2022-10-23T08:16:04;16.40;;;5.95;;
72301;SDS011;60235;52.234;5.186;2022-10-23T08:18:30;12.55;;;5.65;;
72301;SDS011;60235;52.234;5.186;2022-10-23T08:20:59;14.75;;;5.78;;
72301;SDS011;60235;52.234;5.186;2022-10-23T08:23:25;15.32;;;6.03;;
72301;SDS011;60235;52.234;5.186;2022-10-23T08:25:55;15.70;;;5.72;;
72301;SDS011;60235;52.234;5.186;2022-10-23T08:28:22;15.80;;;6.32;;
72301;SDS011;60235;52.234;5.186;2022-10-23T08:30:48;16.08;;;6.05;;
72301;SDS011;60235;52.234;5.186;2022-10-23T08:33:14;14.38;;;5.53;;
72301;SDS011;60235;52.234;5.186;2022-10-23T08:35:40;15.77;;;5.85;;
72301;SDS011;60235;52.234;5.186;2022-10-23T08:38:06;13.82;;;5.85;;
72301;SDS011;60235;52.234;5.186;2022-10-23T08:40:33;13.68;;;5.45;;
72301;SDS011;60235;52.234;5.186;2022-10-23T08:48:24;13.20;;;5.43;;
72301;SDS011;60235;52.234;5.186;2022-10-23T08:51:13;12.18;;;5.28;;
72301;SDS011;60235;52.234;5.186;2022-10-23T08:56:26;12.82;;;5.13;;
72301;SDS011;60235;52.234;5.186;2022-10-23T09:04:36;13.85;;;5.13;;
72301;SDS011;60235;52.234;5.186;2022-10-23T09:07:05;11.50;;;4.97;;
72301;SDS011;60235;52.234;5.186;2022-10-23T09:12:02;16.02;;;4.80;;
72301;SDS011;60235;52.234;5.186;2022-10-23T09:14:39;10.88;;;5.32;;
72301;SDS011;60235;52.234;5.186;2022-10-23T09:19:45;12.95;;;4.85;;
72301;SDS011;60235;52.234;5.186;2022-10-23T09:22:11;11.82;;;4.97;;
72301;SDS011;60235;52.234;5.186;2022-10-23T09:24:40;11.65;;;5.47;;
72301;SDS011;60235;52.234;5.186;2022-10-23T09:27:08;13.02;;;5.18;;
72301;SDS011;60235;52.234;5.186;2022-10-23T09:29:35;11.90;;;4.43;;
72301;SDS011;60235;52.234;5.186;2022-10-23T09:32:02;12.20;;;5.13;;
72301;SDS011;60235;52.234;5.186;2022-10-23T09:34:29;12.82;;;3.85;;
72301;SDS011;60235;52.234;5.186;2022-10-23T09:39:26;12.52;;;4.72;;
72301;SDS011;60235;52.234;5.186;2022-10-23T09:41:53;11.98;;;4.05;;
72301;SDS011;60235;52.234;5.186;2022-10-23T09:44:24;14.23;;;3.95;;
72301;SDS011;60235;52.234;5.186;2022-10-23T09:49:27;9.85;;;3.85;;
72301;SDS011;60235;52.234;5.186;2022-10-23T09:54:23;9.20;;;3.33;;
72301;SDS011;60235;52.234;5.186;2022-10-23T09:56:49;11.38;;;3.65;;
72301;SDS011;60235;52.234;5.186;2022-10-23T10:02:23;11.05;;;4.03;;
72301;SDS011;60235;52.234;5.186;2022-10-23T10:04:40;12.05;;;3.88;;
72301;SDS011;60235;52.234;5.186;2022-10-23T10:10:01;9.95;;;3.65;;
72301;SDS011;60235;52.234;5.186;2022-10-23T10:12:48;11.20;;;3.75;;
72301;SDS011;60235;52.234;5.186;2022-10-23T10:23:00;7.18;;;3.15;;
72301;SDS011;60235;52.234;5.186;2022-10-23T10:25:35;12.10;;;3.42;;
72301;SDS011;60235;52.234;5.186;2022-10-23T10:30:58;8.73;;;3.28;;
72301;SDS011;60235;52.234;5.186;2022-10-23T10:36:11;10.57;;;3.38;;
72301;SDS011;60235;52.234;5.186;2022-10-23T10:38:43;9.75;;;3.17;;
72301;SDS011;60235;52.234;5.186;2022-10-23T10:41:15;9.15;;;3.47;;
72301;SDS011;60235;52.234;5.186;2022-10-23T10:43:55;10.32;;;3.33;;
72301;SDS011;60235;52.234;5.186;2022-10-23T10:46:33;9.93;;;3.72;;
72301;SDS011;60235;52.234;5.186;2022-10-23T10:51:46;8.98;;;3.10;;
72301;SDS011;60235;52.234;5.186;2022-10-23T10:56:51;10.82;;;2.92;;
72301;SDS011;60235;52.234;5.186;2022-10-23T10:59:35;10.60;;;3.33;;
72301;SDS011;60235;52.234;5.186;2022-10-23T11:07:07;11.15;;;2.95;;
72301;SDS011;60235;52.234;5.186;2022-10-23T11:09:37;9.75;;;3.05;;
72301;SDS011;60235;52.234;5.186;2022-10-23T11:12:03;9.52;;;2.88;;
72301;SDS011;60235;52.234;5.186;2022-10-23T11:14:32;8.82;;;3.50;;
72301;SDS011;60235;52.234;5.186;2022-10-23T11:17:10;9.40;;;3.50;;
72301;SDS011;60235;52.234;5.186;2022-10-23T11:19:41;8.98;;;2.88;;
72301;SDS011;60235;52.234;5.186;2022-10-23T11:24:53;12.07;;;4.10;;
72301;SDS011;60235;52.234;5.186;2022-10-23T11:38:18;9.43;;;3.22;;
72301;SDS011;60235;52.234;5.186;2022-10-23T11:40:49;10.38;;;2.58;;
72301;SDS011;60235;52.234;5.186;2022-10-23T11:43:29;9.13;;;2.80;;
72301;SDS011;60235;52.234;5.186;2022-10-23T11:45:57;11.38;;;3.00;;
72301;SDS011;60235;52.234;5.186;2022-10-23T11:48:37;11.48;;;3.22;;
72301;SDS011;60235;52.234;5.186;2022-10-23T11:51:03;7.82;;;2.47;;
72301;SDS011;60235;52.234;5.186;2022-10-23T11:56:22;9.05;;;2.78;;
72301;SDS011;60235;52.234;5.186;2022-10-23T11:58:56;7.28;;;2.55;;
72301;SDS011;60235;52.234;5.186;2022-10-23T12:06:37;8.65;;;2.55;;
72301;SDS011;60235;52.234;5.186;2022-10-23T12:09:06;10.30;;;2.47;;
72301;SDS011;60235;52.234;5.186;2022-10-23T12:14:23;12.38;;;2.88;;
72301;SDS011;60235;52.234;5.186;2022-10-23T12:16:49;9.57;;;2.28;;
72301;SDS011;60235;52.234;5.186;2022-10-23T12:19:20;10.77;;;2.40;;
72301;SDS011;60235;52.234;5.186;2022-10-23T12:21:46;7.97;;;2.35;;
72301;SDS011;60235;52.234;5.186;2022-10-23T12:39:51;7.72;;;2.10;;
72301;SDS011;60235;52.234;5.186;2022-10-23T12:42:22;6.60;;;1.73;;
72301;SDS011;60235;52.234;5.186;2022-10-23T12:44:58;6.65;;;2.22;;
72301;SDS011;60235;52.234;5.186;2022-10-23T12:47:25;7.82;;;1.90;;
72301;SDS011;60235;52.234;5.186;2022-10-23T12:49:51;8.55;;;2.22;;
72301;SDS011;60235;52.234;5.186;2022-10-23T12:52:17;8.80;;;2.25;;
72301;SDS011;60235;52.234;5.186;2022-10-23T12:54:45;7.47;;;2.00;;
72301;SDS011;60235;52.234;5.186;2022-10-23T12:57:25;9.07;;;2.05;;
72301;SDS011;60235;52.234;5.186;2022-10-23T12:59:54;7.22;;;2.22;;
72301;SDS011;60235;52.234;5.186;2022-10-23T13:04:47;7.00;;;2.22;;
72301;SDS011;60235;52.234;5.186;2022-10-23T13:07:14;8.85;;;2.30;;
72301;SDS011;60235;52.234;5.186;2022-10-23T13:09:43;8.20;;;1.90;;
72301;SDS011;60235;52.234;5.186;2022-10-23T13:12:29;7.70;;;2.15;;
72301;SDS011;60235;52.234;5.186;2022-10-23T13:15:00;7.80;;;2.30;;
72301;SDS011;60235;52.234;5.186;2022-10-23T13:20:09;8.13;;;1.80;;
72301;SDS011;60235;52.234;5.186;2022-10-23T13:22:35;7.07;;;2.17;;
72301;SDS011;60235;52.234;5.186;2022-10-23T13:25:01;6.28;;;1.88;;
72301;SDS011;60235;52.234;5.186;2022-10-23T13:27:32;6.72;;;1.77;;
72301;SDS011;60235;52.234;5.186;2022-10-23T13:29:58;6.60;;;1.95;;
72301;SDS011;60235;52.234;5.186;2022-10-23T13:32:25;7.50;;;1.83;;
72301;SDS011;60235;52.234;5.186;2022-10-23T13:34:53;7.50;;;1.85;;
72301;SDS011;60235;52.234;5.186;2022-10-23T13:39:45;7.25;;;2.40;;
72301;SDS011;60235;52.234;5.186;2022-10-23T13:42:12;7.22;;;1.98;;
72301;SDS011;60235;52.234;5.186;2022-10-23T13:44:39;10.60;;;2.30;;
72301;SDS011;60235;52.234;5.186;2022-10-23T13:47:05;8.80;;;2.60;;
72301;SDS011;60235;52.234;5.186;2022-10-23T13:49:35;6.68;;;2.35;;
72301;SDS011;60235;52.234;5.186;2022-10-23T13:52:01;10.20;;;2.30;;
72301;SDS011;60235;52.234;5.186;2022-10-23T13:54:27;7.78;;;2.20;;
72301;SDS011;60235;52.234;5.186;2022-10-23T13:56:54;9.52;;;2.30;;
72301;SDS011;60235;52.234;5.186;2022-10-23T13:59:20;6.40;;;2.30;;
72301;SDS011;60235;52.234;5.186;2022-10-23T14:01:47;9.13;;;2.13;;
72301;SDS011;60235;52.234;5.186;2022-10-23T14:04:14;10.65;;;2.42;;
72301;SDS011;60235;52.234;5.186;2022-10-23T14:06:40;9.02;;;2.25;;
72301;SDS011;60235;52.234;5.186;2022-10-23T14:09:07;9.77;;;2.42;;
72301;SDS011;60235;52.234;5.186;2022-10-23T14:11:33;8.45;;;2.35;;
72301;SDS011;60235;52.234;5.186;2022-10-23T14:13:59;7.57;;;2.03;;
72301;SDS011;60235;52.234;5.186;2022-10-23T14:16:25;9.25;;;2.13;;
72301;SDS011;60235;52.234;5.186;2022-10-23T14:18:52;9.00;;;2.38;;
72301;SDS011;60235;52.234;5.186;2022-10-23T14:21:18;8.30;;;2.17;;
72301;SDS011;60235;52.234;5.186;2022-10-23T14:23:45;9.90;;;2.30;;
72301;SDS011;60235;52.234;5.186;2022-10-23T14:26:12;7.43;;;2.10;;
72301;SDS011;60235;52.234;5.186;2022-10-23T14:28:39;8.43;;;2.13;;
72301;SDS011;60235;52.234;5.186;2022-10-23T14:31:06;10.45;;;2.17;;
72301;SDS011;60235;52.234;5.186;2022-10-23T14:33:32;6.65;;;2.25;;
72301;SDS011;60235;52.234;5.186;2022-10-23T14:35:58;8.70;;;2.70;;
72301;SDS011;60235;52.234;5.186;2022-10-23T14:38:24;9.75;;;3.63;;
72301;SDS011;60235;52.234;5.186;2022-10-23T14:40:50;9.98;;;2.55;;
72301;SDS011;60235;52.234;5.186;2022-10-23T14:43:16;8.43;;;2.78;;
72301;SDS011;60235;52.234;5.186;2022-10-23T14:45:43;7.43;;;2.17;;
72301;SDS011;60235;52.234;5.186;2022-10-23T14:48:09;7.32;;;2.22;;
72301;SDS011;60235;52.234;5.186;2022-10-23T14:50:36;7.03;;;2.10;;
72301;SDS011;60235;52.234;5.186;2022-10-23T14:53:02;9.50;;;2.63;;
72301;SDS011;60235;52.234;5.186;2022-10-23T14:55:29;7.93;;;2.35;;
72301;SDS011;60235;52.234;5.186;2022-10-23T14:57:55;10.27;;;3.15;;
72301;SDS011;60235;52.234;5.186;2022-10-23T15:00:22;8.85;;;2.10;;
72301;SDS011;60235;52.234;5.186;2022-10-23T15:02:48;9.35;;;2.88;;
72301;SDS011;60235;52.234;5.186;2022-10-23T15:05:14;11.35;;;2.70;;
72301;SDS011;60235;52.234;5.186;2022-10-23T15:07:40;8.73;;;2.30;;
72301;SDS011;60235;52.234;5.186;2022-10-23T15:10:06;9.25;;;2.25;;
72301;SDS011;60235;52.234;5.186;2022-10-23T15:12:35;10.00;;;2.40;;
72301;SDS011;60235;52.234;5.186;2022-10-23T15:15:02;11.80;;;3.10;;
72301;SDS011;60235;52.234;5.186;2022-10-23T15:17:28;7.53;;;2.58;;
72301;SDS011;60235;52.234;5.186;2022-10-23T15:19:56;9.68;;;2.30;;
72301;SDS011;60235;52.234;5.186;2022-10-23T15:22:22;10.52;;;2.90;;
72301;SDS011;60235;52.234;5.186;2022-10-23T15:24:48;8.07;;;2.60;;
72301;SDS011;60235;52.234;5.186;2022-10-23T15:27:14;7.85;;;2.72;;
72301;SDS011;60235;52.234;5.186;2022-10-23T15:29:40;10.18;;;2.47;;
72301;SDS011;60235;52.234;5.186;2022-10-23T15:32:06;10.82;;;3.08;;
72301;SDS011;60235;52.234;5.186;2022-10-23T15:34:33;9.35;;;2.75;;
72301;SDS011;60235;52.234;5.186;2022-10-23T15:37:01;11.63;;;3.83;;
72301;SDS011;60235;52.234;5.186;2022-10-23T15:39:28;9.43;;;2.70;;
72301;SDS011;60235;52.234;5.186;2022-10-23T15:41:58;8.52;;;2.35;;
72301;SDS011;60235;52.234;5.186;2022-10-23T15:44:25;15.63;;;2.65;;
72301;SDS011;60235;52.234;5.186;2022-10-23T15:46:51;8.93;;;2.97;;
72301;SDS011;60235;52.234;5.186;2022-10-23T15:49:17;9.55;;;2.55;;
72301;SDS011;60235;52.234;5.186;2022-10-23T15:51:44;9.20;;;3.10;;
72301;SDS011;60235;52.234;5.186;2022-10-23T15:54:11;8.18;;;2.47;;
72301;SDS011;60235;52.234;5.186;2022-10-23T15:56:43;9.52;;;2.85;;
72301;SDS011;60235;52.234;5.186;2022-10-23T15:59:09;8.75;;;2.42;;
72301;SDS011;60235;52.234;5.186;2022-10-23T16:01:35;8.95;;;2.40;;
72301;SDS011;60235;52.234;5.186;2022-10-23T16:04:01;10.60;;;2.80;;
72301;SDS011;60235;52.234;5.186;2022-10-23T16:06:27;11.90;;;3.35;;
72301;SDS011;60235;52.234;5.186;2022-10-23T16:08:53;9.88;;;2.70;;
72301;SDS011;60235;52.234;5.186;2022-10-23T16:11:23;10.50;;;2.78;;
72301;SDS011;60235;52.234;5.186;2022-10-23T16:13:50;7.95;;;2.40;;
72301;SDS011;60235;52.234;5.186;2022-10-23T16:16:16;8.88;;;2.63;;
72301;SDS011;60235;52.234;5.186;2022-10-23T16:18:42;8.43;;;2.88;;
72301;SDS011;60235;52.234;5.186;2022-10-23T16:21:15;7.90;;;2.63;;
72301;SDS011;60235;52.234;5.186;2022-10-23T16:23:41;12.00;;;2.92;;
72301;SDS011;60235;52.234;5.186;2022-10-23T16:26:07;10.35;;;2.67;;
72301;SDS011;60235;52.234;5.186;2022-10-23T16:28:33;8.77;;;2.90;;
72301;SDS011;60235;52.234;5.186;2022-10-23T16:31:00;10.68;;;2.67;;
72301;SDS011;60235;52.234;5.186;2022-10-23T16:33:26;10.10;;;2.58;;
72301;SDS011;60235;52.234;5.186;2022-10-23T16:35:52;8.85;;;2.90;;
72301;SDS011;60235;52.234;5.186;2022-10-23T16:38:18;10.95;;;3.15;;
72301;SDS011;60235;52.234;5.186;2022-10-23T16:40:51;11.98;;;2.97;;
72301;SDS011;60235;52.234;5.186;2022-10-23T16:43:17;10.23;;;2.75;;
72301;SDS011;60235;52.234;5.186;2022-10-23T16:45:43;10.52;;;2.72;;
72301;SDS011;60235;52.234;5.186;2022-10-23T16:48:09;9.18;;;2.67;;
72301;SDS011;60235;52.234;5.186;2022-10-23T16:50:39;9.43;;;2.80;;
72301;SDS011;60235;52.234;5.186;2022-10-23T16:53:05;8.55;;;2.50;;